sensor_id;sensor_type;location;lat;lon;timestamp;temperature;humidity
254;DHT22;590;48.772;8.846;2022-11-14T00:01:15;6.00;99.90
254;DHT22;590;48.772;8.846;2022-11-14T00:03:43;6.10;99.90
254;DHT22;590;48.772;8.846;2022-11-14T00:06:11;6.10;99.90
254;DHT22;590;48.772;8.846;2022-11-14T00:08:39;6.00;99.90
254;DHT22;590;48.772;8.846;2022-11-14T00:11:08;6.00;99.90
254;DHT22;590;48.772;8.846;2022-11-14T00:13:36;6.00;99.90
254;DHT22;590;48.772;8.846;2022-11-14T00:16:05;6.00;99.90
254;DHT22;590;48.772;8.846;2022-11-14T00:18:33;6.00;99.90
254;DHT22;590;48.772;8.846;2022-11-14T00:21:01;6.00;99.90
254;DHT22;590;48.772;8.846;2022-11-14T00:23:29;6.00;99.90
254;DHT22;590;48.772;8.846;2022-11-14T00:25:57;6.00;99.90
254;DHT22;590;48.772;8.846;2022-11-14T00:28:26;5.90;99.90
254;DHT22;590;48.772;8.846;2022-11-14T00:30:54;5.90;99.90
254;DHT22;590;48.772;8.846;2022-11-14T00:33:22;5.90;99.90
254;DHT22;590;48.772;8.846;2022-11-14T00:35:52;5.90;99.90
254;DHT22;590;48.772;8.846;2022-11-14T00:38:20;5.90;99.90
254;DHT22;590;48.772;8.846;2022-11-14T00:40:49;5.90;99.90
254;DHT22;590;48.772;8.846;2022-11-14T00:43:17;6.00;99.90
254;DHT22;590;48.772;8.846;2022-11-14T00:45:47;6.00;99.90
254;DHT22;590;48.772;8.846;2022-11-14T00:48:15;6.00;99.90
254;DHT22;590;48.772;8.846;2022-11-14T00:50:44;6.00;99.90
254;DHT22;590;48.772;8.846;2022-11-14T00:53:12;6.00;99.90
254;DHT22;590;48.772;8.846;2022-11-14T00:55:41;6.00;99.90
254;DHT22;590;48.772;8.846;2022-11-14T00:58:09;5.90;99.90
254;DHT22;590;48.772;8.846;2022-11-14T01:00:37;6.00;99.90
254;DHT22;590;48.772;8.846;2022-11-14T01:03:07;6.00;99.90
254;DHT22;590;48.772;8.846;2022-11-14T01:05:40;6.00;99.90
254;DHT22;590;48.772;8.846;2022-11-14T01:08:08;6.00;99.90
254;DHT22;590;48.772;8.846;2022-11-14T01:10:38;6.00;99.90
254;DHT22;590;48.772;8.846;2022-11-14T01:13:06;6.00;99.90
254;DHT22;590;48.772;8.846;2022-11-14T01:15:37;5.90;99.90
254;DHT22;590;48.772;8.846;2022-11-14T01:18:07;5.90;99.90
254;DHT22;590;48.772;8.846;2022-11-14T01:20:37;5.90;99.90
254;DHT22;590;48.772;8.846;2022-11-14T01:23:06;5.80;99.90
254;DHT22;590;48.772;8.846;2022-11-14T01:25:34;5.90;99.90
254;DHT22;590;48.772;8.846;2022-11-14T01:28:05;5.80;99.90
254;DHT22;590;48.772;8.846;2022-11-14T01:30:33;5.90;99.90
254;DHT22;590;48.772;8.846;2022-11-14T01:33:02;5.90;99.90
254;DHT22;590;48.772;8.846;2022-11-14T01:35:32;5.90;99.90
254;DHT22;590;48.772;8.846;2022-11-14T01:38:01;5.90;99.90
254;DHT22;590;48.772;8.846;2022-11-14T01:40:29;5.80;99.90
254;DHT22;590;48.772;8.846;2022-11-14T01:46:01;5.80;99.90
254;DHT22;590;48.772;8.846;2022-11-14T01:48:34;5.90;99.90
254;DHT22;590;48.772;8.846;2022-11-14T01:51:16;5.90;99.90
254;DHT22;590;48.772;8.846;2022-11-14T01:53:45;5.80;99.90
254;DHT22;590;48.772;8.846;2022-11-14T01:56:16;5.80;99.90
254;DHT22;590;48.772;8.846;2022-11-14T01:58:49;5.80;99.90
254;DHT22;590;48.772;8.846;2022-11-14T02:01:19;5.80;99.90
254;DHT22;590;48.772;8.846;2022-11-14T02:03:49;5.70;99.90
254;DHT22;590;48.772;8.846;2022-11-14T02:06:23;5.70;99.90
254;DHT22;590;48.772;8.846;2022-11-14T02:08:53;5.70;99.90
254;DHT22;590;48.772;8.846;2022-11-14T02:11:21;5.70;99.90
254;DHT22;590;48.772;8.846;2022-11-14T02:13:50;5.60;99.90
254;DHT22;590;48.772;8.846;2022-11-14T02:16:18;5.70;99.90
254;DHT22;590;48.772;8.846;2022-11-14T02:18:46;5.70;99.90
254;DHT22;590;48.772;8.846;2022-11-14T02:21:16;5.70;99.90
254;DHT22;590;48.772;8.846;2022-11-14T02:23:44;5.70;99.90
254;DHT22;590;48.772;8.846;2022-11-14T02:26:12;5.70;99.90
254;DHT22;590;48.772;8.846;2022-11-14T02:28:40;5.70;99.90
254;DHT22;590;48.772;8.846;2022-11-14T02:31:08;5.70;99.90
254;DHT22;590;48.772;8.846;2022-11-14T02:33:36;5.70;99.90
254;DHT22;590;48.772;8.846;2022-11-14T02:36:04;5.70;99.90
254;DHT22;590;48.772;8.846;2022-11-14T02:38:34;5.60;99.90
254;DHT22;590;48.772;8.846;2022-11-14T02:41:03;5.60;99.90
254;DHT22;590;48.772;8.846;2022-11-14T02:43:31;5.50;99.90
254;DHT22;590;48.772;8.846;2022-11-14T02:45:59;5.60;99.90
254;DHT22;590;48.772;8.846;2022-11-14T02:48:31;5.50;99.90
254;DHT22;590;48.772;8.846;2022-11-14T02:50:59;5.50;99.90
254;DHT22;590;48.772;8.846;2022-11-14T02:53:27;5.50;99.90
254;DHT22;590;48.772;8.846;2022-11-14T02:55:57;5.40;99.90
254;DHT22;590;48.772;8.846;2022-11-14T02:58:25;5.40;99.90
254;DHT22;590;48.772;8.846;2022-11-14T03:00:53;5.40;99.90
254;DHT22;590;48.772;8.846;2022-11-14T03:03:41;5.40;99.90
254;DHT22;590;48.772;8.846;2022-11-14T03:06:09;5.40;99.90
254;DHT22;590;48.772;8.846;2022-11-14T03:08:37;5.40;99.90
254;DHT22;590;48.772;8.846;2022-11-14T03:11:08;5.30;99.90
254;DHT22;590;48.772;8.846;2022-11-14T03:13:37;5.30;99.90
254;DHT22;590;48.772;8.846;2022-11-14T03:16:05;5.30;99.90
254;DHT22;590;48.772;8.846;2022-11-14T03:18:34;5.20;99.90
254;DHT22;590;48.772;8.846;2022-11-14T03:21:06;5.20;99.90
254;DHT22;590;48.772;8.846;2022-11-14T03:23:34;5.30;99.90
254;DHT22;590;48.772;8.846;2022-11-14T03:26:04;5.20;99.90
254;DHT22;590;48.772;8.846;2022-11-14T03:28:34;5.30;99.90
254;DHT22;590;48.772;8.846;2022-11-14T03:31:02;5.30;99.90
254;DHT22;590;48.772;8.846;2022-11-14T03:33:31;5.30;99.90
254;DHT22;590;48.772;8.846;2022-11-14T03:35:59;5.20;99.90
254;DHT22;590;48.772;8.846;2022-11-14T03:38:28;5.20;99.90
254;DHT22;590;48.772;8.846;2022-11-14T03:40:57;5.20;99.90
254;DHT22;590;48.772;8.846;2022-11-14T03:43:29;5.20;99.90
254;DHT22;590;48.772;8.846;2022-11-14T03:45:59;5.20;99.90
254;DHT22;590;48.772;8.846;2022-11-14T03:48:28;5.30;99.90
254;DHT22;590;48.772;8.846;2022-11-14T03:50:57;5.30;99.90
254;DHT22;590;48.772;8.846;2022-11-14T03:53:25;5.20;99.90
254;DHT22;590;48.772;8.846;2022-11-14T03:55:54;5.20;99.90
254;DHT22;590;48.772;8.846;2022-11-14T03:58:22;5.20;99.90
254;DHT22;590;48.772;8.846;2022-11-14T04:00:50;5.20;99.90
254;DHT22;590;48.772;8.846;2022-11-14T04:03:20;5.10;99.90
254;DHT22;590;48.772;8.846;2022-11-14T04:05:48;5.20;99.90
254;DHT22;590;48.772;8.846;2022-11-14T04:08:16;5.20;99.90
254;DHT22;590;48.772;8.846;2022-11-14T04:10:46;5.20;99.90
254;DHT22;590;48.772;8.846;2022-11-14T04:13:14;5.20;99.90
254;DHT22;590;48.772;8.846;2022-11-14T04:15:42;5.20;99.90
254;DHT22;590;48.772;8.846;2022-11-14T04:18:10;5.20;99.90
254;DHT22;590;48.772;8.846;2022-11-14T04:20:39;5.20;99.90
254;DHT22;590;48.772;8.846;2022-11-14T04:23:07;5.10;99.90
254;DHT22;590;48.772;8.846;2022-11-14T04:25:36;5.00;99.90
254;DHT22;590;48.772;8.846;2022-11-14T04:28:04;4.90;99.90
254;DHT22;590;48.772;8.846;2022-11-14T04:30:32;4.80;99.90
254;DHT22;590;48.772;8.846;2022-11-14T04:33:00;4.80;99.90
254;DHT22;590;48.772;8.846;2022-11-14T04:35:28;4.80;99.90
254;DHT22;590;48.772;8.846;2022-11-14T04:37:58;4.80;99.90
254;DHT22;590;48.772;8.846;2022-11-14T04:40:26;4.80;99.90
254;DHT22;590;48.772;8.846;2022-11-14T04:42:54;4.80;99.90
254;DHT22;590;48.772;8.846;2022-11-14T04:45:22;4.80;99.90
254;DHT22;590;48.772;8.846;2022-11-14T04:47:50;4.80;99.90
254;DHT22;590;48.772;8.846;2022-11-14T04:50:18;4.80;99.90
254;DHT22;590;48.772;8.846;2022-11-14T04:52:46;4.70;99.90
254;DHT22;590;48.772;8.846;2022-11-14T04:55:15;4.70;99.90
254;DHT22;590;48.772;8.846;2022-11-14T04:57:44;4.70;99.90
254;DHT22;590;48.772;8.846;2022-11-14T05:00:13;4.70;99.90
254;DHT22;590;48.772;8.846;2022-11-14T05:02:41;4.70;99.90
254;DHT22;590;48.772;8.846;2022-11-14T05:05:09;4.80;99.90
254;DHT22;590;48.772;8.846;2022-11-14T05:07:37;4.80;99.90
254;DHT22;590;48.772;8.846;2022-11-14T05:10:06;4.80;99.90
254;DHT22;590;48.772;8.846;2022-11-14T05:12:36;4.90;99.90
254;DHT22;590;48.772;8.846;2022-11-14T05:15:04;4.90;99.90
254;DHT22;590;48.772;8.846;2022-11-14T05:17:32;4.80;99.90
254;DHT22;590;48.772;8.846;2022-11-14T05:20:01;4.80;99.90
254;DHT22;590;48.772;8.846;2022-11-14T05:22:29;4.80;99.90
254;DHT22;590;48.772;8.846;2022-11-14T05:24:57;4.80;99.90
254;DHT22;590;48.772;8.846;2022-11-14T05:27:25;4.80;99.90
254;DHT22;590;48.772;8.846;2022-11-14T05:29:54;4.80;99.90
254;DHT22;590;48.772;8.846;2022-11-14T05:32:22;4.80;99.90
254;DHT22;590;48.772;8.846;2022-11-14T05:34:50;4.80;99.90
254;DHT22;590;48.772;8.846;2022-11-14T05:37:18;4.80;99.90
254;DHT22;590;48.772;8.846;2022-11-14T05:39:46;4.80;99.90
254;DHT22;590;48.772;8.846;2022-11-14T05:42:14;4.80;99.90
254;DHT22;590;48.772;8.846;2022-11-14T05:44:42;4.80;99.90
254;DHT22;590;48.772;8.846;2022-11-14T05:47:11;4.80;99.90
254;DHT22;590;48.772;8.846;2022-11-14T05:49:39;4.70;99.90
254;DHT22;590;48.772;8.846;2022-11-14T05:52:07;4.70;99.90
254;DHT22;590;48.772;8.846;2022-11-14T05:54:36;4.70;99.90
254;DHT22;590;48.772;8.846;2022-11-14T05:57:04;4.70;99.90
254;DHT22;590;48.772;8.846;2022-11-14T05:59:32;4.60;99.90
254;DHT22;590;48.772;8.846;2022-11-14T06:02:00;4.60;99.90
254;DHT22;590;48.772;8.846;2022-11-14T06:04:29;4.70;99.90
254;DHT22;590;48.772;8.846;2022-11-14T06:06:57;4.70;99.90
254;DHT22;590;48.772;8.846;2022-11-14T06:09:25;4.70;99.90
254;DHT22;590;48.772;8.846;2022-11-14T06:11:53;4.70;99.90
254;DHT22;590;48.772;8.846;2022-11-14T06:14:21;4.70;99.90
254;DHT22;590;48.772;8.846;2022-11-14T06:16:49;4.70;99.90
254;DHT22;590;48.772;8.846;2022-11-14T06:19:18;4.70;99.90
254;DHT22;590;48.772;8.846;2022-11-14T06:21:50;4.70;99.90
254;DHT22;590;48.772;8.846;2022-11-14T06:24:21;4.80;99.90
254;DHT22;590;48.772;8.846;2022-11-14T06:26:52;4.80;99.90
254;DHT22;590;48.772;8.846;2022-11-14T06:29:22;4.80;99.90
254;DHT22;590;48.772;8.846;2022-11-14T06:31:51;4.90;99.90
254;DHT22;590;48.772;8.846;2022-11-14T06:34:22;4.90;99.90
254;DHT22;590;48.772;8.846;2022-11-14T06:36:53;5.00;99.90
254;DHT22;590;48.772;8.846;2022-11-14T06:39:22;5.00;99.90
254;DHT22;590;48.772;8.846;2022-11-14T06:41:51;5.10;99.90
254;DHT22;590;48.772;8.846;2022-11-14T06:44:21;5.10;99.90
254;DHT22;590;48.772;8.846;2022-11-14T06:47:00;5.20;99.90
254;DHT22;590;48.772;8.846;2022-11-14T06:49:33;5.30;99.90
254;DHT22;590;48.772;8.846;2022-11-14T06:52:09;5.30;99.90
254;DHT22;590;48.772;8.846;2022-11-14T06:54:38;5.30;99.90
254;DHT22;590;48.772;8.846;2022-11-14T06:57:06;5.40;99.90
254;DHT22;590;48.772;8.846;2022-11-14T06:59:34;5.40;99.90
254;DHT22;590;48.772;8.846;2022-11-14T07:02:02;5.50;99.90
254;DHT22;590;48.772;8.846;2022-11-14T07:04:30;5.60;99.90
254;DHT22;590;48.772;8.846;2022-11-14T07:06:58;5.70;99.90
254;DHT22;590;48.772;8.846;2022-11-14T07:09:27;5.70;99.90
254;DHT22;590;48.772;8.846;2022-11-14T07:11:55;5.80;99.90
254;DHT22;590;48.772;8.846;2022-11-14T07:14:24;5.90;99.90
254;DHT22;590;48.772;8.846;2022-11-14T07:16:55;5.90;99.90
254;DHT22;590;48.772;8.846;2022-11-14T07:19:23;5.90;99.90
254;DHT22;590;48.772;8.846;2022-11-14T07:21:59;6.00;99.90
254;DHT22;590;48.772;8.846;2022-11-14T07:24:40;6.00;99.90
254;DHT22;590;48.772;8.846;2022-11-14T07:27:08;6.00;99.90
254;DHT22;590;48.772;8.846;2022-11-14T07:29:39;6.10;99.90
254;DHT22;590;48.772;8.846;2022-11-14T07:32:08;6.10;99.90
254;DHT22;590;48.772;8.846;2022-11-14T07:34:36;6.20;99.90
254;DHT22;590;48.772;8.846;2022-11-14T07:37:04;6.30;99.90
254;DHT22;590;48.772;8.846;2022-11-14T07:39:32;6.40;99.90
254;DHT22;590;48.772;8.846;2022-11-14T07:42:01;6.50;99.90
254;DHT22;590;48.772;8.846;2022-11-14T07:44:29;6.50;99.90
254;DHT22;590;48.772;8.846;2022-11-14T07:46:57;6.60;99.90
254;DHT22;590;48.772;8.846;2022-11-14T07:49:25;6.60;99.90
254;DHT22;590;48.772;8.846;2022-11-14T07:51:53;6.70;99.90
254;DHT22;590;48.772;8.846;2022-11-14T07:54:21;6.70;99.90
254;DHT22;590;48.772;8.846;2022-11-14T07:56:51;6.70;99.90
254;DHT22;590;48.772;8.846;2022-11-14T07:59:23;6.70;99.90
254;DHT22;590;48.772;8.846;2022-11-14T08:01:52;6.70;99.90
254;DHT22;590;48.772;8.846;2022-11-14T08:04:21;6.70;99.90
254;DHT22;590;48.772;8.846;2022-11-14T08:06:50;6.70;99.90
254;DHT22;590;48.772;8.846;2022-11-14T08:09:18;6.80;99.90
254;DHT22;590;48.772;8.846;2022-11-14T08:11:47;6.80;99.90
254;DHT22;590;48.772;8.846;2022-11-14T08:14:16;6.90;99.90
254;DHT22;590;48.772;8.846;2022-11-14T08:16:48;6.90;99.90
254;DHT22;590;48.772;8.846;2022-11-14T08:19:16;7.00;99.90
254;DHT22;590;48.772;8.846;2022-11-14T08:21:44;7.00;99.90
254;DHT22;590;48.772;8.846;2022-11-14T08:24:12;7.10;99.90
254;DHT22;590;48.772;8.846;2022-11-14T08:26:41;7.20;99.90
254;DHT22;590;48.772;8.846;2022-11-14T08:29:09;7.30;99.90
254;DHT22;590;48.772;8.846;2022-11-14T08:31:37;7.30;99.90
254;DHT22;590;48.772;8.846;2022-11-14T08:34:07;7.50;99.90
254;DHT22;590;48.772;8.846;2022-11-14T08:36:35;7.50;99.90
254;DHT22;590;48.772;8.846;2022-11-14T08:39:03;7.60;99.90
254;DHT22;590;48.772;8.846;2022-11-14T08:41:31;7.60;99.90
254;DHT22;590;48.772;8.846;2022-11-14T08:43:59;7.60;99.90
254;DHT22;590;48.772;8.846;2022-11-14T08:46:27;7.60;99.90
254;DHT22;590;48.772;8.846;2022-11-14T08:48:55;7.60;99.90
254;DHT22;590;48.772;8.846;2022-11-14T08:51:25;7.60;99.90
254;DHT22;590;48.772;8.846;2022-11-14T08:53:53;7.60;99.90
254;DHT22;590;48.772;8.846;2022-11-14T08:56:21;7.60;99.90
254;DHT22;590;48.772;8.846;2022-11-14T08:58:50;7.70;99.90
254;DHT22;590;48.772;8.846;2022-11-14T09:01:23;7.70;99.90
254;DHT22;590;48.772;8.846;2022-11-14T09:04:07;7.80;99.90
254;DHT22;590;48.772;8.846;2022-11-14T09:06:38;7.90;99.90
254;DHT22;590;48.772;8.846;2022-11-14T09:09:13;8.00;99.90
254;DHT22;590;48.772;8.846;2022-11-14T09:11:41;8.00;99.90
254;DHT22;590;48.772;8.846;2022-11-14T09:14:09;8.10;99.90
254;DHT22;590;48.772;8.846;2022-11-14T09:16:38;8.20;99.90
254;DHT22;590;48.772;8.846;2022-11-14T09:19:07;8.20;99.90
254;DHT22;590;48.772;8.846;2022-11-14T09:21:37;8.30;99.90
254;DHT22;590;48.772;8.846;2022-11-14T09:24:05;8.40;99.90
254;DHT22;590;48.772;8.846;2022-11-14T09:26:33;8.40;99.90
254;DHT22;590;48.772;8.846;2022-11-14T09:29:01;8.40;99.90
254;DHT22;590;48.772;8.846;2022-11-14T09:31:32;8.50;99.90
254;DHT22;590;48.772;8.846;2022-11-14T09:34:00;8.60;99.90
254;DHT22;590;48.772;8.846;2022-11-14T09:36:28;8.70;99.90
254;DHT22;590;48.772;8.846;2022-11-14T09:38:57;8.80;99.90
254;DHT22;590;48.772;8.846;2022-11-14T09:41:29;8.80;99.90
254;DHT22;590;48.772;8.846;2022-11-14T09:44:23;8.90;99.90
254;DHT22;590;48.772;8.846;2022-11-14T09:46:56;8.90;99.90
254;DHT22;590;48.772;8.846;2022-11-14T09:49:29;8.90;99.90
254;DHT22;590;48.772;8.846;2022-11-14T09:52:04;8.90;99.90
254;DHT22;590;48.772;8.846;2022-11-14T09:54:44;8.90;99.90
254;DHT22;590;48.772;8.846;2022-11-14T09:57:15;8.90;99.90
254;DHT22;590;48.772;8.846;2022-11-14T09:59:44;9.00;99.90
254;DHT22;590;48.772;8.846;2022-11-14T10:02:32;9.00;99.90
254;DHT22;590;48.772;8.846;2022-11-14T10:05:17;9.10;99.90
254;DHT22;590;48.772;8.846;2022-11-14T10:08:02;9.10;99.90
254;DHT22;590;48.772;8.846;2022-11-14T10:10:49;9.20;99.90
254;DHT22;590;48.772;8.846;2022-11-14T10:13:29;9.20;99.90
254;DHT22;590;48.772;8.846;2022-11-14T10:16:03;9.20;99.90
254;DHT22;590;48.772;8.846;2022-11-14T10:21:47;9.40;99.90
254;DHT22;590;48.772;8.846;2022-11-14T10:24:42;9.50;99.90
254;DHT22;590;48.772;8.846;2022-11-14T10:27:18;9.60;99.90
254;DHT22;590;48.772;8.846;2022-11-14T10:30:01;9.60;99.90
254;DHT22;590;48.772;8.846;2022-11-14T10:32:48;9.70;99.90
254;DHT22;590;48.772;8.846;2022-11-14T10:35:18;9.70;99.90
254;DHT22;590;48.772;8.846;2022-11-14T10:37:55;9.70;99.90
254;DHT22;590;48.772;8.846;2022-11-14T10:40:29;9.80;99.90
254;DHT22;590;48.772;8.846;2022-11-14T10:43:05;9.80;99.90
254;DHT22;590;48.772;8.846;2022-11-14T10:45:41;9.80;99.90
254;DHT22;590;48.772;8.846;2022-11-14T10:48:14;9.90;99.90
254;DHT22;590;48.772;8.846;2022-11-14T10:50:47;9.90;99.90
254;DHT22;590;48.772;8.846;2022-11-14T10:53:26;10.00;99.90
254;DHT22;590;48.772;8.846;2022-11-14T10:55:55;10.10;99.90
254;DHT22;590;48.772;8.846;2022-11-14T10:58:33;10.10;99.90
254;DHT22;590;48.772;8.846;2022-11-14T11:01:34;10.10;99.90
254;DHT22;590;48.772;8.846;2022-11-14T11:04:18;10.20;99.90
254;DHT22;590;48.772;8.846;2022-11-14T11:06:47;10.20;99.90
254;DHT22;590;48.772;8.846;2022-11-14T11:09:18;10.20;99.90
254;DHT22;590;48.772;8.846;2022-11-14T11:12:14;10.20;99.90
254;DHT22;590;48.772;8.846;2022-11-14T11:14:45;10.20;99.90
254;DHT22;590;48.772;8.846;2022-11-14T11:17:21;10.20;99.90
254;DHT22;590;48.772;8.846;2022-11-14T11:23:06;10.40;99.90
254;DHT22;590;48.772;8.846;2022-11-14T11:25:41;10.50;99.90
254;DHT22;590;48.772;8.846;2022-11-14T11:28:11;10.60;99.90
254;DHT22;590;48.772;8.846;2022-11-14T11:30:54;10.70;99.90
254;DHT22;590;48.772;8.846;2022-11-14T11:33:24;10.80;99.90
254;DHT22;590;48.772;8.846;2022-11-14T11:35:55;10.80;99.90
254;DHT22;590;48.772;8.846;2022-11-14T11:38:25;10.80;99.90
254;DHT22;590;48.772;8.846;2022-11-14T11:41:03;10.90;99.90
254;DHT22;590;48.772;8.846;2022-11-14T11:43:54;11.00;99.90
254;DHT22;590;48.772;8.846;2022-11-14T11:46:30;11.00;99.90
254;DHT22;590;48.772;8.846;2022-11-14T11:49:02;11.20;99.90
254;DHT22;590;48.772;8.846;2022-11-14T11:51:38;11.30;99.90
254;DHT22;590;48.772;8.846;2022-11-14T11:54:11;11.30;99.90
254;DHT22;590;48.772;8.846;2022-11-14T11:56:41;11.30;99.90
254;DHT22;590;48.772;8.846;2022-11-14T11:59:21;11.30;99.90
254;DHT22;590;48.772;8.846;2022-11-14T12:01:54;11.30;99.90
254;DHT22;590;48.772;8.846;2022-11-14T12:04:23;11.30;99.90
254;DHT22;590;48.772;8.846;2022-11-14T12:06:57;11.20;99.90
254;DHT22;590;48.772;8.846;2022-11-14T12:09:32;11.20;99.90
254;DHT22;590;48.772;8.846;2022-11-14T12:12:30;11.20;99.90
254;DHT22;590;48.772;8.846;2022-11-14T12:15:09;11.20;99.90
254;DHT22;590;48.772;8.846;2022-11-14T12:18:07;11.20;99.90
254;DHT22;590;48.772;8.846;2022-11-14T12:20:54;11.30;99.90
254;DHT22;590;48.772;8.846;2022-11-14T12:23:51;11.50;99.90
254;DHT22;590;48.772;8.846;2022-11-14T12:26:42;11.60;99.90
254;DHT22;590;48.772;8.846;2022-11-14T12:32:18;11.90;99.90
254;DHT22;590;48.772;8.846;2022-11-14T12:34:51;12.00;99.90
254;DHT22;590;48.772;8.846;2022-11-14T12:37:22;12.20;99.90
254;DHT22;590;48.772;8.846;2022-11-14T12:39:55;12.30;99.90
254;DHT22;590;48.772;8.846;2022-11-14T12:42:24;12.30;99.90
254;DHT22;590;48.772;8.846;2022-11-14T12:44:52;12.30;99.90
254;DHT22;590;48.772;8.846;2022-11-14T12:47:22;12.30;99.90
254;DHT22;590;48.772;8.846;2022-11-14T12:52:56;12.30;99.90
254;DHT22;590;48.772;8.846;2022-11-14T12:55:54;12.20;99.90
254;DHT22;590;48.772;8.846;2022-11-14T12:58:36;12.30;99.90
254;DHT22;590;48.772;8.846;2022-11-14T13:01:23;12.20;99.90
254;DHT22;590;48.772;8.846;2022-11-14T13:04:04;12.30;99.90
254;DHT22;590;48.772;8.846;2022-11-14T13:06:41;12.30;99.90
254;DHT22;590;48.772;8.846;2022-11-14T13:09:52;12.30;99.90
254;DHT22;590;48.772;8.846;2022-11-14T13:12:30;12.40;99.90
254;DHT22;590;48.772;8.846;2022-11-14T13:15:27;12.50;99.90
254;DHT22;590;48.772;8.846;2022-11-14T13:18:20;12.40;99.90
254;DHT22;590;48.772;8.846;2022-11-14T13:21:17;12.50;99.90
254;DHT22;590;48.772;8.846;2022-11-14T13:24:13;12.50;99.90
254;DHT22;590;48.772;8.846;2022-11-14T13:26:48;12.40;99.90
254;DHT22;590;48.772;8.846;2022-11-14T13:35:37;12.60;99.90
254;DHT22;590;48.772;8.846;2022-11-14T13:41:14;12.80;99.90
254;DHT22;590;48.772;8.846;2022-11-14T13:44:08;12.80;99.90
254;DHT22;590;48.772;8.846;2022-11-14T13:47:07;12.90;99.90
254;DHT22;590;48.772;8.846;2022-11-14T13:49:53;12.90;99.90
254;DHT22;590;48.772;8.846;2022-11-14T13:52:24;12.90;99.90
254;DHT22;590;48.772;8.846;2022-11-14T13:54:55;12.90;99.40
254;DHT22;590;48.772;8.846;2022-11-14T13:57:31;12.90;99.70
254;DHT22;590;48.772;8.846;2022-11-14T14:00:09;12.90;99.60
254;DHT22;590;48.772;8.846;2022-11-14T14:03:09;12.90;99.40
254;DHT22;590;48.772;8.846;2022-11-14T14:05:56;12.90;99.50
254;DHT22;590;48.772;8.846;2022-11-14T14:08:49;12.90;98.80
254;DHT22;590;48.772;8.846;2022-11-14T14:11:37;12.80;99.20
254;DHT22;590;48.772;8.846;2022-11-14T14:14:20;12.80;99.30
254;DHT22;590;48.772;8.846;2022-11-14T14:16:54;12.80;99.50
254;DHT22;590;48.772;8.846;2022-11-14T14:19:41;12.80;99.60
254;DHT22;590;48.772;8.846;2022-11-14T14:22:17;12.90;99.40
254;DHT22;590;48.772;8.846;2022-11-14T14:24:54;12.80;99.30
254;DHT22;590;48.772;8.846;2022-11-14T14:27:31;12.90;98.90
254;DHT22;590;48.772;8.846;2022-11-14T14:30:07;12.80;98.60
254;DHT22;590;48.772;8.846;2022-11-14T14:32:38;12.80;98.30
254;DHT22;590;48.772;8.846;2022-11-14T14:35:22;12.80;97.30
254;DHT22;590;48.772;8.846;2022-11-14T14:37:52;12.60;97.80
254;DHT22;590;48.772;8.846;2022-11-14T14:40:25;12.60;98.00
254;DHT22;590;48.772;8.846;2022-11-14T14:42:54;12.50;98.00
254;DHT22;590;48.772;8.846;2022-11-14T14:45:24;12.50;98.00
254;DHT22;590;48.772;8.846;2022-11-14T14:48:01;12.40;98.40
254;DHT22;590;48.772;8.846;2022-11-14T14:50:34;12.40;98.40
254;DHT22;590;48.772;8.846;2022-11-14T14:53:04;12.30;98.70
254;DHT22;590;48.772;8.846;2022-11-14T14:55:34;12.30;98.80
254;DHT22;590;48.772;8.846;2022-11-14T14:58:13;12.20;99.10
254;DHT22;590;48.772;8.846;2022-11-14T15:00:51;12.20;99.00
254;DHT22;590;48.772;8.846;2022-11-14T15:03:22;12.10;99.50
254;DHT22;590;48.772;8.846;2022-11-14T15:05:57;12.10;99.90
254;DHT22;590;48.772;8.846;2022-11-14T15:08:25;12.10;99.90
254;DHT22;590;48.772;8.846;2022-11-14T15:10:57;12.10;99.90
254;DHT22;590;48.772;8.846;2022-11-14T15:13:27;12.10;99.90
254;DHT22;590;48.772;8.846;2022-11-14T15:15:56;12.00;99.90
254;DHT22;590;48.772;8.846;2022-11-14T15:18:27;12.00;99.90
254;DHT22;590;48.772;8.846;2022-11-14T15:21:07;12.00;99.90
254;DHT22;590;48.772;8.846;2022-11-14T15:23:36;11.90;99.90
254;DHT22;590;48.772;8.846;2022-11-14T15:26:11;11.90;99.90
254;DHT22;590;48.772;8.846;2022-11-14T15:28:40;11.80;99.90
254;DHT22;590;48.772;8.846;2022-11-14T15:31:15;11.80;99.90
254;DHT22;590;48.772;8.846;2022-11-14T15:33:58;11.70;99.90
254;DHT22;590;48.772;8.846;2022-11-14T15:36:27;11.60;99.90
254;DHT22;590;48.772;8.846;2022-11-14T15:39:00;11.60;99.90
254;DHT22;590;48.772;8.846;2022-11-14T15:41:29;11.50;99.90
254;DHT22;590;48.772;8.846;2022-11-14T15:43:57;11.50;99.90
254;DHT22;590;48.772;8.846;2022-11-14T15:46:40;11.40;99.90
254;DHT22;590;48.772;8.846;2022-11-14T15:49:20;11.40;99.90
254;DHT22;590;48.772;8.846;2022-11-14T15:51:51;11.30;99.90
254;DHT22;590;48.772;8.846;2022-11-14T15:54:23;11.20;99.90
254;DHT22;590;48.772;8.846;2022-11-14T15:56:52;11.20;99.90
254;DHT22;590;48.772;8.846;2022-11-14T15:59:22;11.10;99.90
254;DHT22;590;48.772;8.846;2022-11-14T16:01:52;11.10;99.90
254;DHT22;590;48.772;8.846;2022-11-14T16:04:27;11.10;99.90
254;DHT22;590;48.772;8.846;2022-11-14T16:06:56;11.10;99.90
254;DHT22;590;48.772;8.846;2022-11-14T16:09:24;11.00;99.90
254;DHT22;590;48.772;8.846;2022-11-14T16:11:52;11.00;99.90
254;DHT22;590;48.772;8.846;2022-11-14T16:14:20;10.90;99.90
254;DHT22;590;48.772;8.846;2022-11-14T16:16:48;10.90;99.90
254;DHT22;590;48.772;8.846;2022-11-14T16:19:16;10.90;99.90
254;DHT22;590;48.772;8.846;2022-11-14T16:21:46;10.90;99.90
254;DHT22;590;48.772;8.846;2022-11-14T16:24:16;10.80;99.90
254;DHT22;590;48.772;8.846;2022-11-14T16:26:45;10.80;99.90
254;DHT22;590;48.772;8.846;2022-11-14T16:29:14;10.70;99.90
254;DHT22;590;48.772;8.846;2022-11-14T16:31:42;10.70;99.90
254;DHT22;590;48.772;8.846;2022-11-14T16:34:15;10.70;99.90
254;DHT22;590;48.772;8.846;2022-11-14T16:36:46;10.60;99.90
254;DHT22;590;48.772;8.846;2022-11-14T16:39:14;10.60;99.90
254;DHT22;590;48.772;8.846;2022-11-14T16:41:42;10.50;99.90
254;DHT22;590;48.772;8.846;2022-11-14T16:44:14;10.50;99.90
254;DHT22;590;48.772;8.846;2022-11-14T16:46:44;10.50;99.90
254;DHT22;590;48.772;8.846;2022-11-14T16:49:13;10.50;99.90
254;DHT22;590;48.772;8.846;2022-11-14T16:51:42;10.50;99.90
254;DHT22;590;48.772;8.846;2022-11-14T16:54:17;10.40;99.90
254;DHT22;590;48.772;8.846;2022-11-14T16:56:46;10.40;99.90
254;DHT22;590;48.772;8.846;2022-11-14T16:59:14;10.40;99.90
254;DHT22;590;48.772;8.846;2022-11-14T17:01:42;10.40;99.90
254;DHT22;590;48.772;8.846;2022-11-14T17:04:11;10.40;99.90
254;DHT22;590;48.772;8.846;2022-11-14T17:06:39;10.40;99.90
254;DHT22;590;48.772;8.846;2022-11-14T17:09:10;10.50;99.90
254;DHT22;590;48.772;8.846;2022-11-14T17:11:40;10.50;99.90
254;DHT22;590;48.772;8.846;2022-11-14T17:14:09;10.50;99.90
254;DHT22;590;48.772;8.846;2022-11-14T17:16:37;10.40;99.90
254;DHT22;590;48.772;8.846;2022-11-14T17:19:06;10.50;99.90
254;DHT22;590;48.772;8.846;2022-11-14T17:21:33;10.50;99.90
254;DHT22;590;48.772;8.846;2022-11-14T17:24:02;10.50;99.90
254;DHT22;590;48.772;8.846;2022-11-14T17:26:30;10.50;99.90
254;DHT22;590;48.772;8.846;2022-11-14T17:28:59;10.50;99.90
254;DHT22;590;48.772;8.846;2022-11-14T17:31:28;10.60;99.90
254;DHT22;590;48.772;8.846;2022-11-14T17:34:03;10.60;99.90
254;DHT22;590;48.772;8.846;2022-11-14T17:36:31;10.60;99.90
254;DHT22;590;48.772;8.846;2022-11-14T17:39:00;10.60;99.90
254;DHT22;590;48.772;8.846;2022-11-14T17:41:28;10.60;99.90